Savonburg, Kansas
Current Conditions -  °F | °C
As of 6:52 AM on Saturday 20 Dec 2014 (Local Time) from KCNU Reporting Station
Overcast Overcast  
Wind Chill: 31°   Ceiling: 1600
Heat Index: 36°   Visibility: 10mi
Dew Point: 33°   Wind: 6mph
Humidity: 89%   Direction: 220°SW
Pressure: 30.22"   Gusts: NA
Location:  37.75°N, 95.14°W
Report Text: KCNU 201252Z AUTO 22005KT 10SM OVC016 02/01 A3022 RMK AO2 SLP240 T00220006
Loading
Personal Weather Stations






























Interactive Weather Map New forecast layout! Learn more

10-Day Weather Forecast

Advertisements
Track Severe Weather on mobile